createdAt,value
2019-05-30T00:01:05.979Z,77.69
2019-05-30T00:03:56.037Z,77.52
2019-05-30T00:09:45.232Z,78.43
2019-05-30T00:12:35.032Z,79.05
2019-05-30T00:15:24.971Z,79.30
2019-05-30T00:18:14.790Z,79.89
2019-05-30T00:20:45.238Z,80.58
2019-05-30T00:23:34.985Z,81.24
2019-05-30T00:26:24.787Z,81.82
2019-05-30T00:29:14.600Z,82.86
2019-05-30T00:32:05.029Z,83.06
2019-05-30T00:34:55.901Z,83.04
2019-05-30T00:37:45.680Z,84.06
2019-05-30T00:40:35.501Z,85.27
2019-05-30T00:43:25.267Z,86.16
2019-05-30T00:46:15.107Z,87.06
2019-05-30T00:49:06.510Z,86.81
2019-05-30T00:51:56.718Z,87.37
2019-05-30T00:54:27.166Z,88.37
2019-05-30T00:57:16.933Z,87.74
2019-05-30T01:00:07.425Z,88.29
2019-05-30T01:02:59.889Z,88.32
2019-05-30T01:05:40.681Z,88.47
2019-05-30T01:08:30.487Z,87.59
2019-05-30T01:11:20.344Z,87.73
2019-05-30T01:14:10.134Z,87.36
2019-05-30T01:17:01.047Z,87.73
2019-05-30T01:19:43.286Z,87.97
2019-05-30T01:22:33.121Z,87.44
2019-05-30T01:25:22.895Z,86.90
2019-05-30T01:28:12.692Z,87.10
2019-05-30T01:31:05.544Z,86.42
2019-05-30T01:33:40.100Z,86.49
2019-05-30T01:36:29.878Z,85.31
2019-05-30T01:39:19.670Z,84.39
2019-05-30T01:42:09.468Z,85.28
2019-05-30T01:45:00.197Z,84.38
2019-05-30T01:47:42.729Z,85.00
2019-05-30T01:50:32.549Z,84.92
2019-05-30T01:53:22.325Z,84.73
2019-05-30T01:56:12.095Z,83.78
2019-05-30T01:59:02.672Z,83.85
2019-05-30T02:01:39.394Z,83.16
2019-05-30T02:04:29.175Z,82.41
2019-05-30T02:07:18.973Z,82.09
2019-05-30T02:13:12.544Z,80.64
2019-05-30T02:16:03.644Z,80.06
2019-05-30T02:18:45.284Z,79.16
2019-05-30T02:21:35.071Z,78.58
2019-05-30T02:24:24.834Z,78.26
2019-05-30T02:27:14.622Z,77.74
2019-05-30T02:30:06.633Z,76.91
2019-05-30T02:32:47.691Z,76.25
2019-05-30T02:35:37.484Z,75.79
2019-05-30T02:38:27.225Z,75.91
2019-05-30T02:40:57.781Z,75.90
2019-05-30T02:46:37.643Z,76.46
2019-05-30T02:49:27.462Z,75.89
2019-05-30T02:52:17.256Z,75.43
2019-05-30T02:55:09.139Z,75.53
2019-05-30T02:57:50.463Z,75.67
2019-05-30T03:03:24.706Z,75.50
2019-05-30T03:06:14.706Z,75.58
2019-05-30T03:11:51.025Z,76.80
2019-05-30T03:14:40.808Z,77.36
2019-05-30T03:17:30.600Z,77.53
2019-05-30T03:20:23.264Z,77.21
2019-05-30T03:23:05.297Z,78.47
2019-05-30T03:25:40.903Z,78.09
2019-05-30T03:28:30.693Z,78.23
2019-05-30T03:34:44.817Z,78.54
2019-05-30T03:37:34.617Z,79.28
2019-05-30T03:40:25.733Z,78.78
2019-05-30T03:43:03.856Z,78.82
2019-05-30T04:16:34.250Z,81.28
2019-05-30T04:19:24.052Z,81.43
2019-05-30T04:22:15.355Z,81.59
2019-05-30T04:24:56.693Z,81.43
2019-05-30T04:27:27.148Z,81.96
2019-05-30T04:30:18.540Z,82.40
2019-05-30T04:33:17.164Z,83.80
2019-05-30T04:35:43.728Z,83.50
2019-05-30T04:38:33.510Z,83.96
2019-05-30T04:41:23.268Z,84.24
2019-05-30T04:44:14.484Z,84.01
2019-05-30T04:47:04.576Z,83.41
2019-05-30T04:49:54.354Z,83.24
2019-05-30T04:52:44.101Z,84.33
2019-05-30T04:55:33.893Z,83.87
2019-05-30T04:58:04.324Z,83.88
2019-05-30T05:00:54.106Z,83.67
2019-05-30T05:03:46.149Z,83.69
2019-05-30T05:06:26.627Z,83.49
2019-05-30T05:09:17.990Z,84.06
2019-05-30T05:11:59.227Z,83.77
2019-05-30T05:14:49.004Z,84.50
2019-05-30T05:17:38.837Z,83.51
2019-05-30T05:20:28.588Z,82.53
2019-05-30T05:23:04.704Z,82.03
2019-05-30T05:26:00.891Z,81.46
2019-05-30T05:28:32.084Z,82.00
2019-05-30T05:31:22.457Z,81.55
2019-05-30T05:34:04.796Z,81.86
2019-05-30T05:36:54.586Z,81.10
2019-05-30T05:39:44.378Z,80.39
2019-05-30T05:42:34.158Z,79.81
2019-05-30T05:45:24.693Z,79.96
2019-05-30T05:48:06.866Z,79.35
2019-05-30T05:50:56.660Z,79.00
2019-05-30T05:53:27.144Z,79.01
2019-05-30T05:55:57.526Z,77.50
2019-05-30T05:58:29.250Z,77.19
2019-05-30T06:01:06.138Z,77.11
2019-05-30T06:03:36.622Z,76.51
2019-05-30T06:06:27.385Z,75.57
2019-05-30T06:09:09.360Z,75.89
2019-05-30T06:11:59.158Z,75.85
2019-05-30T06:14:29.578Z,74.55
2019-05-30T06:17:19.376Z,75.02
2019-05-30T06:20:09.325Z,73.97
2019-05-30T06:22:39.769Z,73.78
2019-05-30T06:25:32.474Z,71.75
2019-05-30T06:28:12.521Z,71.68
2019-05-30T06:31:02.295Z,70.02
2019-05-30T06:33:52.101Z,70.73
2019-05-30T06:36:41.883Z,69.46
2019-05-30T06:39:31.706Z,69.39
2019-05-30T06:42:21.719Z,68.63
2019-05-30T06:44:59.056Z,69.15
2019-05-30T06:47:48.864Z,67.35
2019-05-30T06:50:39.017Z,67.25
2019-05-30T06:53:29.348Z,65.96
2019-05-30T06:56:13.240Z,66.86
2019-05-30T06:59:03.084Z,66.73
2019-05-30T07:01:52.871Z,65.52
2019-05-30T07:04:51.425Z,65.93
2019-05-30T07:07:34.294Z,66.69
2019-05-30T07:10:11.863Z,65.47
2019-05-30T07:13:01.687Z,65.85
2019-05-30T07:15:34.261Z,65.49
2019-05-30T07:18:23.642Z,65.62
2019-05-30T07:21:13.416Z,65.95
2019-05-30T07:24:23.737Z,65.23
2019-05-30T07:27:05.752Z,64.21
2019-05-30T07:29:36.151Z,63.31
2019-05-30T07:38:01.918Z,64.43
2019-05-30T07:40:51.776Z,63.70
2019-05-30T07:43:24.890Z,63.35
2019-05-30T07:46:13.796Z,62.64
2019-05-30T07:49:03.568Z,61.46
2019-05-30T07:51:53.343Z,61.56
2019-05-30T07:54:43.154Z,59.81
2019-05-30T07:57:33.267Z,59.30
2019-05-30T08:00:57.433Z,58.04
2019-05-30T08:03:47.217Z,57.26
2019-05-30T08:06:37.909Z,56.02
2019-05-30T08:09:20.315Z,54.95
2019-05-30T08:12:10.131Z,55.52
2019-05-30T08:14:59.883Z,55.00
2019-05-30T08:17:49.687Z,54.24
2019-05-30T08:20:39.419Z,54.28
2019-05-30T08:23:30.091Z,54.55
2019-05-30T08:26:20.680Z,53.58
2019-05-30T08:29:10.497Z,55.02
2019-05-30T08:32:00.281Z,53.15
2019-05-30T08:34:50.054Z,51.65
2019-05-30T08:37:39.831Z,53.18
2019-05-30T08:40:29.588Z,53.78
2019-05-30T08:43:19.478Z,54.97
2019-05-30T08:46:09.275Z,53.59
2019-05-30T08:49:01.697Z,54.25
2019-05-30T08:51:42.448Z,53.68
2019-05-30T08:54:32.305Z,52.65
2019-05-30T08:57:22.088Z,52.54
2019-05-30T08:59:52.530Z,51.56
2019-05-30T09:02:42.917Z,50.89
2019-05-30T09:05:27.849Z,50.93
2019-05-30T09:08:17.642Z,50.15
2019-05-30T09:11:07.416Z,50.36
2019-05-30T09:13:38.882Z,50.72
2019-05-30T09:16:23.103Z,51.41
2019-05-30T09:19:12.891Z,50.45
2019-05-30T09:22:15.700Z,50.07
2019-05-30T09:24:46.683Z,49.36
2019-05-30T09:27:29.871Z,50.09
2019-05-30T09:33:23.618Z,50.37
2019-05-30T09:36:14.088Z,49.89
2019-05-30T09:38:56.484Z,50.29
2019-05-30T09:41:46.278Z,50.81
2019-05-30T09:44:50.443Z,50.70
2019-05-30T09:47:24.220Z,50.81
2019-05-30T09:53:20.282Z,51.01
2019-05-30T09:56:10.060Z,51.14
2019-05-30T09:58:59.931Z,51.48
2019-05-30T10:01:50.147Z,50.39
2019-05-30T10:04:32.716Z,50.31
2019-05-30T10:07:22.550Z,49.46
2019-05-30T10:10:12.634Z,49.79
2019-05-30T10:13:02.430Z,49.58
2019-05-30T10:15:52.563Z,48.75
2019-05-30T10:18:36.302Z,49.26
2019-05-30T10:21:26.094Z,49.16
2019-05-30T10:24:15.916Z,47.85
2019-05-30T10:27:05.728Z,47.97
2019-05-30T10:29:55.524Z,48.01
2019-05-30T10:32:46.750Z,47.93
2019-05-30T10:35:30.107Z,48.33
2019-05-30T10:38:12.628Z,48.08
2019-05-30T10:41:02.483Z,49.21
2019-05-30T10:43:53.151Z,49.19
2019-05-30T10:46:34.831Z,49.13
2019-05-30T10:49:34.410Z,48.74
2019-05-30T10:52:09.858Z,48.10
2019-05-30T10:54:59.630Z,48.01
2019-05-30T10:57:50.061Z,47.98
2019-05-30T11:00:53.638Z,47.86
2019-05-30T11:03:35.201Z,47.58
2019-05-30T11:12:37.070Z,48.27
2019-05-30T11:15:26.826Z,48.39
2019-05-30T11:18:16.669Z,48.91
2019-05-30T11:21:06.497Z,48.04
2019-05-30T11:23:56.763Z,47.73
2019-05-30T11:26:39.161Z,47.47
2019-05-30T11:29:29.011Z,47.95
2019-05-30T11:32:18.738Z,46.92
2019-05-30T11:35:08.652Z,47.25
2019-05-30T11:37:59.267Z,46.79
2019-05-30T11:40:43.206Z,47.60
2019-05-30T11:43:33.063Z,47.53
2019-05-30T11:46:22.863Z,48.10
2019-05-30T11:49:12.669Z,47.55
2019-05-30T11:51:43.135Z,47.77
2019-05-30T11:54:33.044Z,47.80
2019-05-30T11:57:22.872Z,47.42
2019-05-30T12:03:14.476Z,47.42
2019-05-30T12:06:04.265Z,46.55
2019-05-30T12:08:54.738Z,46.63
2019-05-30T12:11:36.667Z,46.90
2019-05-30T12:14:26.496Z,46.44
2019-05-30T12:17:16.273Z,46.82
2019-05-30T12:23:11.415Z,47.61
2019-05-30T12:26:02.291Z,47.98
2019-05-30T12:28:45.699Z,52.83
2019-05-30T12:31:35.619Z,54.86
2019-05-30T12:34:25.430Z,56.96
2019-05-30T12:37:15.248Z,57.96
2019-05-30T12:43:09.376Z,59.02
2019-05-30T12:45:59.197Z,58.78
2019-05-30T12:48:48.970Z,58.70
2019-05-30T12:51:38.764Z,58.04
2019-05-30T12:54:28.566Z,57.72
2019-05-30T12:57:18.297Z,57.71
2019-05-30T13:02:52.543Z,57.63
2019-05-30T13:05:42.378Z,57.72
2019-05-30T13:08:32.248Z,56.75
2019-05-30T13:11:22.052Z,56.92
2019-05-30T13:14:11.909Z,57.13
2019-05-30T13:17:01.909Z,57.20
2019-05-30T13:19:32.299Z,57.45
2019-05-30T13:22:22.131Z,57.18
2019-05-30T13:24:52.565Z,56.99
2019-05-30T13:27:42.418Z,57.02
2019-05-30T13:30:32.293Z,56.51
2019-05-30T13:33:22.101Z,54.52
2019-05-30T13:36:11.872Z,54.33
2019-05-30T13:39:01.655Z,52.11
2019-05-30T13:41:51.501Z,51.57
2019-05-30T13:44:41.321Z,49.81
2019-05-30T13:47:31.111Z,49.29
2019-05-30T13:53:05.353Z,47.94
2019-05-30T13:55:56.400Z,47.68
2019-05-30T13:58:26.801Z,48.37
2019-05-30T14:01:16.561Z,49.16
2019-05-30T14:04:06.443Z,49.50
2019-05-30T14:06:56.187Z,50.23
2019-05-30T14:09:45.992Z,51.25
2019-05-30T14:12:35.803Z,51.68
2019-05-30T14:15:25.707Z,52.78
2019-05-30T14:18:15.477Z,54.21
2019-05-30T14:21:05.314Z,55.46
2019-05-30T14:23:55.116Z,56.33
2019-05-30T14:26:44.910Z,57.05
2019-05-30T14:29:34.724Z,57.13
2019-05-30T14:32:24.541Z,57.03
2019-05-30T14:34:54.934Z,56.80
2019-05-30T14:37:44.737Z,56.95
2019-05-30T14:40:34.556Z,57.06
2019-05-30T14:43:05.270Z,57.64
2019-05-30T14:45:48.442Z,57.86
2019-05-30T14:48:38.231Z,57.98
2019-05-30T14:51:28.045Z,58.20
2019-05-30T14:54:17.847Z,57.28
2019-05-30T14:57:08.819Z,57.88
2019-05-30T14:59:50.535Z,58.21
2019-05-30T15:02:40.321Z,56.26
2019-05-30T15:05:30.193Z,54.93
2019-05-30T15:08:19.974Z,52.81
2019-05-30T15:11:09.732Z,52.25
2019-05-30T15:13:59.516Z,51.84
2019-05-30T15:16:49.301Z,51.20
2019-05-30T15:19:39.074Z,50.50
2019-05-30T15:22:28.837Z,50.29
2019-05-30T15:24:59.256Z,51.07
2019-05-30T15:27:49.044Z,50.78
2019-05-30T15:30:38.814Z,51.28
2019-05-30T15:33:28.601Z,51.22
2019-05-30T15:36:18.407Z,50.97
2019-05-30T15:39:09.012Z,50.38
2019-05-30T15:41:40.249Z,50.04
2019-05-30T15:44:30.042Z,50.58
2019-05-30T15:47:19.843Z,50.52
2019-05-30T15:53:13.092Z,50.28
2019-05-30T15:56:03.726Z,50.95
2019-05-30T15:58:53.536Z,50.94
2019-05-30T16:01:43.322Z,51.58
2019-05-30T16:04:33.123Z,52.25
2019-05-30T16:07:22.918Z,52.90
2019-05-30T16:10:12.994Z,53.68
2019-05-30T16:12:43.534Z,54.47
2019-05-30T16:15:33.344Z,54.16
2019-05-30T16:18:23.126Z,53.68
2019-05-30T16:20:53.532Z,53.77
2019-05-30T16:23:43.312Z,54.58
2019-05-30T16:26:33.124Z,53.87
2019-05-30T16:29:22.893Z,54.63
2019-05-30T16:32:13.806Z,54.83
2019-05-30T16:35:04.282Z,54.79
2019-05-30T16:37:54.083Z,54.98
2019-05-30T16:40:24.459Z,55.76
2019-05-30T16:43:14.301Z,56.28
2019-05-30T16:46:04.087Z,56.23
2019-05-30T16:48:34.649Z,56.78
2019-05-30T16:51:24.472Z,57.00
2019-05-30T16:54:15.136Z,56.67
2019-05-30T16:57:05.745Z,56.29
2019-05-30T16:59:55.536Z,56.52
2019-05-30T17:02:45.334Z,55.66
2019-05-30T17:05:35.157Z,56.30
2019-05-30T17:08:26.265Z,56.98
2019-05-30T17:11:10.082Z,57.56
2019-05-30T17:13:59.902Z,57.74
2019-05-30T17:16:49.753Z,57.98
2019-05-30T17:19:39.840Z,58.25
2019-05-30T17:22:17.092Z,58.59
2019-05-30T17:25:07.210Z,58.83
2019-05-30T17:27:37.762Z,59.50
2019-05-30T17:30:27.771Z,59.64
2019-05-30T17:33:20.070Z,59.92
2019-05-30T17:36:09.165Z,60.07
2019-05-30T17:38:58.946Z,60.34
2019-05-30T17:41:48.749Z,60.85
2019-05-30T17:44:38.564Z,61.15
2019-05-30T17:47:29.465Z,61.32
2019-05-30T17:50:50.755Z,61.67
2019-05-30T17:53:40.580Z,62.00
2019-05-30T17:56:30.433Z,62.55
2019-05-30T17:59:20.273Z,62.51
2019-05-30T18:02:10.436Z,62.84
2019-05-30T18:04:41.261Z,63.54
2019-05-30T18:07:31.229Z,63.80
2019-05-30T18:10:21.133Z,63.71
2019-05-30T18:13:11.002Z,63.86
2019-05-30T18:16:00.864Z,64.00
2019-05-30T18:18:50.698Z,64.36
2019-05-30T18:21:41.448Z,64.26
2019-05-30T18:24:31.791Z,64.73
2019-05-30T18:27:08.855Z,65.33
2019-05-30T18:29:58.660Z,65.51
2019-05-30T18:32:30.233Z,65.51
2019-05-30T18:35:20.554Z,65.45
2019-05-30T18:38:10.392Z,65.06
2019-05-30T18:41:11.091Z,64.83
2019-05-30T18:43:42.770Z,66.08
2019-05-30T18:46:33.357Z,66.63
2019-05-30T18:49:17.072Z,67.02
2019-05-30T18:52:06.881Z,67.34
2019-05-30T18:54:56.770Z,67.23
2019-05-30T18:57:27.261Z,67.93
2019-05-30T19:00:18.474Z,67.78
2019-05-30T19:02:54.825Z,68.45
2019-05-30T19:05:44.681Z,68.54
2019-05-30T19:08:34.539Z,66.91
2019-05-30T19:11:27.972Z,67.28
2019-05-30T19:14:07.928Z,66.77
2019-05-30T19:16:57.767Z,67.48
2019-05-30T19:19:51.098Z,67.51
2019-05-30T19:28:01.643Z,67.57
2019-05-30T19:30:51.497Z,68.22
2019-05-30T19:33:41.378Z,68.59
2019-05-30T19:36:31.208Z,70.38
2019-05-30T19:39:21.427Z,71.09
2019-05-30T19:42:11.258Z,71.83
2019-05-30T19:45:01.178Z,72.20
2019-05-30T19:47:51.027Z,72.33
2019-05-30T19:50:40.917Z,72.93
2019-05-30T19:53:30.904Z,73.73
2019-05-30T19:56:01.551Z,74.65
2019-05-30T19:58:51.302Z,75.50
2019-05-30T20:01:41.125Z,76.35
2019-05-30T20:04:32.146Z,76.45
2019-05-30T20:07:08.600Z,76.48
2019-05-30T20:10:01.774Z,76.65
2019-05-30T20:12:41.871Z,77.18
2019-05-30T20:15:31.688Z,77.14
2019-05-30T20:18:21.539Z,77.06
2019-05-30T20:21:11.341Z,77.66
2019-05-30T20:24:01.164Z,78.14
2019-05-30T20:26:32.400Z,78.48
2019-05-30T20:29:23.241Z,78.72
2019-05-30T20:32:13.059Z,79.09
2019-05-30T20:35:02.939Z,79.21
2019-05-30T20:37:52.767Z,79.12
2019-05-30T20:40:43.037Z,79.02
2019-05-30T20:43:20.176Z,79.01
2019-05-30T20:49:14.649Z,79.90
2019-05-30T20:52:04.438Z,80.41
2019-05-30T20:54:35.276Z,80.48
2019-05-30T20:57:46.709Z,80.51
2019-05-30T21:00:56.218Z,80.58
2019-05-30T21:03:46.002Z,80.64
2019-05-30T21:06:36.670Z,81.21
2019-05-30T21:09:27.865Z,81.23
2019-05-30T21:21:08.979Z,77.20
2019-05-30T21:23:58.792Z,77.22
2019-05-30T21:26:31.249Z,75.65
2019-05-30T21:32:26.725Z,75.91
2019-05-30T21:35:16.783Z,75.61
2019-05-30T21:38:06.667Z,75.14
2019-05-30T21:40:56.447Z,75.31
2019-05-30T21:43:46.836Z,75.47
2019-05-30T21:46:29.108Z,75.13
2019-05-30T21:49:18.908Z,74.95
2019-05-30T21:52:08.699Z,74.42
2019-05-30T21:54:58.532Z,74.39
2019-05-30T21:57:28.988Z,74.19
2019-05-30T22:03:25.018Z,73.63
2019-05-30T22:06:14.859Z,72.49
2019-05-30T22:12:08.997Z,72.29
2019-05-30T22:15:17.789Z,71.86
2019-05-30T22:18:07.654Z,70.83
2019-05-30T22:24:26.638Z,70.70
2019-05-30T22:27:16.423Z,70.75
2019-05-30T22:30:06.749Z,70.89
2019-05-30T22:32:56.628Z,70.05
2019-05-30T22:35:46.786Z,68.53
2019-05-30T22:38:27.050Z,69.36
2019-05-30T22:41:16.822Z,68.96
2019-05-30T22:46:50.315Z,68.63
2019-05-30T22:49:40.075Z,67.96
2019-05-30T22:52:29.854Z,68.32
2019-05-30T22:55:21.473Z,67.67
2019-05-30T22:57:57.880Z,67.78
2019-05-30T23:00:46.161Z,68.07
2019-05-30T23:03:18.113Z,68.47
2019-05-30T23:06:07.964Z,68.80
2019-05-30T23:08:57.799Z,68.46
2019-05-30T23:11:47.743Z,68.46
2019-05-30T23:14:18.431Z,68.78
2019-05-30T23:17:08.268Z,68.50
2019-05-30T23:19:58.136Z,67.52
2019-05-30T23:22:28.634Z,66.60
2019-05-30T23:25:18.438Z,66.30
2019-05-30T23:28:08.195Z,65.77
2019-05-30T23:30:38.610Z,65.33
2019-05-30T23:33:28.386Z,65.17
2019-05-30T23:36:18.244Z,65.26
2019-05-30T23:39:08.210Z,63.77
2019-05-30T23:41:59.239Z,64.46
2019-05-30T23:44:49.486Z,63.57
2019-05-30T23:47:39.301Z,64.09
2019-05-30T23:50:29.083Z,63.64
2019-05-30T23:53:18.881Z,63.96
2019-05-30T23:56:08.656Z,64.32
2019-05-30T23:58:58.901Z,64.25
